Sallisaw, Oklahoma
Current Conditions -  °F | °C
As of 9:55 PM on Wednesday 22 Oct 2014 (Local Time) from KJSV Reporting Station
Clear Clear  
Wind Chill: 61°   Ceiling: Unl
Heat Index: 61°   Visibility: 10mi
Dew Point: 54°   Wind: 5mph
Humidity: 77%   Direction: 100°E
Pressure: 30.17"   Gusts: NA
Location:  35.46°N, 94.79°W
Report Text: KJSV 230255Z AUTO 10004KT 10SM CLR 16/12 A3017 RMK AO2
Loading
Personal Weather Stations






























Interactive Weather Map
Tropical Storm Tracking
New forecast layout! Learn more

10-Day Weather Forecast

Advertisements
Track Severe Weather on mobile